Time;durP1;ratioP1;P1;durP2;ratioP2;P2;SDS_P1;SDS_P2;PMS_P1;PMS_P2;Temp;Humidity;BMP_temperature;BMP_pressure;BME280_temperature;BME280_humidity;BME280_pressure;Samples;Min_cycle;Max_cycle;Signal;HPM_P1;HPM_P2
2022/07/12 00:01:18;;;;;;;9.45;3.80;;;;;;;20.59;65.70;92991.44;4775946;30;20039;-74
2022/07/12 00:03:44;;;;;;;10.48;4.07;;;;;;;20.55;66.68;92998.50;4776855;30;20058;-75
2022/07/12 00:06:10;;;;;;;12.05;4.28;;;;;;;20.65;67.50;93001.84;4761084;30;20039;-75
2022/07/12 00:08:35;;;;;;;7.53;4.60;;;;;;;20.64;70.02;93001.06;4776305;30;20067;-75
2022/07/12 00:11:01;;;;;;;10.40;4.47;;;;;;;20.41;70.58;92998.09;4760873;30;20051;-74
2022/07/12 00:13:27;;;;;;;9.23;4.30;;;;;;;20.23;72.07;92997.56;4762328;30;20529;-75
2022/07/12 00:15:52;;;;;;;7.10;4.15;;;;;;;20.14;73.48;92995.03;4775818;29;20062;-74
2022/07/12 00:18:18;;;;;;;8.93;4.68;;;;;;;20.06;74.64;92997.78;4775331;30;20047;-75
2022/07/12 00:20:43;;;;;;;15.13;5.38;;;;;;;19.99;76.53;92992.25;4765045;30;20031;-74
2022/07/12 00:23:09;;;;;;;11.02;6.70;;;;;;;19.78;80.97;93000.34;4775269;30;20058;-75
2022/07/12 00:25:34;;;;;;;8.15;4.75;;;;;;;19.70;80.85;93002.75;4765114;30;20054;-75
2022/07/12 00:28:00;;;;;;;9.15;5.38;;;;;;;19.67;81.29;93003.38;4780029;30;20035;-74
2022/07/12 00:30:26;;;;;;;13.38;5.35;;;;;;;19.56;83.36;92992.41;4777222;30;20049;-74
2022/07/12 00:32:51;;;;;;;9.68;5.20;;;;;;;19.47;81.99;92996.25;4759178;30;20050;-74
2022/07/12 00:35:17;;;;;;;15.23;5.40;;;;;;;19.40;82.16;93001.34;4776241;29;20035;-75
2022/07/12 00:37:42;;;;;;;13.15;5.32;;;;;;;19.35;81.67;93003.09;4780488;30;20466;-75
2022/07/12 00:40:10;;;;;;;13.88;5.32;;;;;;;19.30;82.27;92999.88;4776281;30;20525;-75
2022/07/12 00:42:36;;;;;;;15.40;5.75;;;;;;;19.25;82.13;93003.53;4779301;30;20095;-75
2022/07/12 00:45:03;;;;;;;12.15;5.65;;;;;;;19.20;82.91;93009.00;4777954;29;20426;-75
2022/07/12 00:47:37;;;;;;;9.20;4.97;;;;;;;19.14;83.84;93008.47;4763641;30;20129;-75
2022/07/12 00:50:08;;;;;;;12.93;5.30;;;;;;;19.08;83.65;93003.69;4775360;30;20058;-75
2022/07/12 00:52:36;;;;;;;9.68;5.55;;;;;;;18.91;85.82;92992.13;4750783;30;20074;-75
2022/07/12 00:55:05;;;;;;;11.98;4.85;;;;;;;18.85;84.07;93001.38;4774653;30;20035;-75
2022/07/12 00:57:44;;;;;;;14.65;5.03;;;;;;;18.84;81.84;93004.34;4778111;30;20058;-75
2022/07/12 01:00:12;;;;;;;9.75;4.82;;;;;;;18.77;82.34;92999.56;4766477;30;20039;-75
2022/07/12 01:02:38;;;;;;;8.80;5.00;;;;;;;18.72;82.31;93000.50;4775406;30;20046;-75
2022/07/12 01:05:05;;;;;;;11.98;5.47;;;;;;;18.67;83.07;93005.22;4778363;30;20047;-75
2022/07/12 01:07:31;;;;;;;10.48;4.75;;;;;;;18.61;83.86;92995.91;4775134;30;20038;-75
2022/07/12 01:09:56;;;;;;;16.35;5.55;;;;;;;18.54;84.69;93001.72;4778734;29;20070;-75
2022/07/12 01:12:24;;;;;;;8.75;5.18;;;;;;;18.58;87.26;92999.22;4764062;30;20526;-75
2022/07/12 01:14:50;;;;;;;16.88;5.05;;;;;;;18.53;85.16;92994.88;4765179;30;20100;-75
2022/07/12 01:17:19;;;;;;;10.45;4.82;;;;;;;18.44;85.36;93008.19;4762542;30;20031;-75
2022/07/12 01:19:46;;;;;;;12.30;5.28;;;;;;;18.35;85.97;93006.69;4764890;30;20043;-75
2022/07/12 01:22:15;;;;;;;11.27;4.88;;;;;;;18.27;86.04;93014.38;4762038;30;21560;-75
2022/07/12 01:24:41;;;;;;;9.57;4.80;;;;;;;18.20;85.17;93015.97;4778093;30;20414;-74
2022/07/12 01:27:07;;;;;;;8.63;4.90;;;;;;;18.16;84.21;93020.34;4760535;30;20133;-75
2022/07/12 01:29:33;;;;;;;13.88;4.60;;;;;;;18.14;84.96;93017.25;4776611;30;20057;-74
2022/07/12 01:32:24;;;;;;;10.30;4.55;;;;;;;18.08;84.15;93009.50;4776303;30;20043;-75
2022/07/12 01:35:01;;;;;;;11.07;5.28;;;;;;;18.05;85.91;93010.13;4760515;30;20465;-75
2022/07/12 01:37:31;;;;;;;10.65;4.50;;;;;;;18.06;84.86;93014.34;4776022;30;20116;-75
2022/07/12 01:39:58;;;;;;;12.60;4.70;;;;;;;18.04;84.33;93013.09;4776353;30;20089;-75
2022/07/12 01:42:26;;;;;;;12.18;4.40;;;;;;;18.03;83.21;93014.94;4760506;30;20037;-75
2022/07/12 01:44:53;;;;;;;8.43;4.50;;;;;;;18.01;83.04;93017.16;4765154;29;20422;-75
2022/07/12 01:47:24;;;;;;;14.07;4.65;;;;;;;17.98;82.85;93011.72;4775580;30;20051;-75
2022/07/12 01:49:50;;;;;;;12.45;4.88;;;;;;;17.98;84.24;93025.72;4764795;30;20085;-75
2022/07/12 01:52:17;;;;;;;9.02;4.20;;;;;;;17.96;84.95;93019.19;4759727;30;20479;-75
2022/07/12 01:54:43;;;;;;;7.18;4.05;;;;;;;17.94;83.95;93019.50;4778632;30;20061;-75
2022/07/12 01:57:09;;;;;;;8.43;4.50;;;;;;;17.92;83.65;93024.34;4778412;30;20031;-75
2022/07/12 01:59:36;;;;;;;13.70;4.38;;;;;;;17.89;83.82;93025.00;4778569;30;20566;-75
2022/07/12 02:02:01;;;;;;;9.02;4.10;;;;;;;17.85;84.04;93022.19;4762229;30;20035;-75
2022/07/12 02:04:27;;;;;;;8.60;4.00;;;;;;;17.83;83.91;93026.25;4776773;29;20521;-75
2022/07/12 02:06:52;;;;;;;13.98;4.13;;;;;;;17.82;83.79;93025.50;4778389;30;20122;-75
2022/07/12 02:09:18;;;;;;;14.75;3.90;;;;;;;17.81;83.57;93023.13;4777453;30;20451;-74
2022/07/12 02:11:48;;;;;;;8.80;4.03;;;;;;;17.79;83.62;93026.09;4765958;30;20501;-75
2022/07/12 02:14:14;;;;;;;7.88;4.10;;;;;;;17.79;83.52;93025.34;4764032;29;20483;-75
2022/07/12 02:16:40;;;;;;;9.55;3.90;;;;;;;17.78;83.46;93021.13;4776633;30;20035;-74
2022/07/12 02:19:06;;;;;;;9.82;3.80;;;;;;;17.77;83.24;93027.53;4776682;29;20035;-75
2022/07/12 02:21:33;;;;;;;10.48;3.70;;;;;;;17.73;83.39;93022.06;4776796;29;20043;-75
2022/07/12 02:23:59;;;;;;;9.90;3.85;;;;;;;17.70;83.66;93025.34;4774702;30;20066;-74
2022/07/12 02:26:25;;;;;;;8.32;3.92;;;;;;;17.67;83.30;93024.13;4778007;29;20038;-75
2022/07/12 02:28:51;;;;;;;14.20;3.95;;;;;;;17.63;83.74;93017.91;4761668;30;20463;-75
2022/07/12 02:31:16;;;;;;;13.95;4.05;;;;;;;17.62;83.92;93026.16;4777505;30;20103;-75
2022/07/12 02:33:42;;;;;;;11.18;4.25;;;;;;;17.61;83.99;93029.91;4764052;30;20043;-75
2022/07/12 02:36:08;;;;;;;14.18;4.22;;;;;;;17.60;83.98;93025.69;4749214;30;20043;-75
2022/07/12 02:38:33;;;;;;;14.77;4.13;;;;;;;17.58;83.96;93020.69;4777743;30;20039;-74
2022/07/12 02:40:59;;;;;;;7.97;3.75;;;;;;;17.58;84.10;93020.69;4776461;30;20047;-75
2022/07/12 02:43:30;;;;;;;10.05;3.72;;;;;;;17.59;84.20;93024.91;4764086;30;20097;-75
2022/07/12 02:46:06;;;;;;;9.23;3.67;;;;;;;17.59;83.60;93016.22;4758864;30;20043;-75
2022/07/12 02:48:32;;;;;;;8.40;3.35;;;;;;;17.59;83.26;93021.50;4776468;30;20133;-75
2022/07/12 02:51:03;;;;;;;9.55;3.30;;;;;;;17.59;82.56;93024.91;4777076;30;20036;-74
2022/07/12 02:53:28;;;;;;;10.88;3.40;;;;;;;17.62;82.46;93026.16;4777215;30;20066;-75
2022/07/12 02:55:54;;;;;;;6.15;3.08;;;;;;;17.64;82.08;93022.09;4760356;30;20078;-75
2022/07/12 02:58:19;;;;;;;10.13;3.88;;;;;;;17.65;81.19;93018.38;4776495;30;20068;-74
2022/07/12 03:00:45;;;;;;;7.35;3.55;;;;;;;17.68;81.30;93019.59;4775779;30;20043;-74
2022/07/12 03:03:12;;;;;;;8.13;3.33;;;;;;;17.71;81.61;93026.13;4775698;30;20036;-74
2022/07/12 03:05:38;;;;;;;12.63;3.15;;;;;;;17.71;81.44;93021.59;4777996;30;20043;-75
2022/07/12 03:08:05;;;;;;;7.03;3.20;;;;;;;17.71;80.84;93026.13;4774769;30;20113;-75
2022/07/12 03:10:31;;;;;;;9.18;2.85;;;;;;;17.74;81.75;93022.84;4778520;30;20049;-75
2022/07/12 03:12:56;;;;;;;9.95;2.80;;;;;;;17.72;81.50;93019.72;4764087;30;20403;-75
2022/07/12 03:15:22;;;;;;;5.90;2.78;;;;;;;17.71;81.26;93032.19;4773755;29;20521;-75
2022/07/12 03:17:47;;;;;;;7.03;2.70;;;;;;;17.68;82.09;93019.59;4776424;30;20066;-74
2022/07/12 03:20:14;;;;;;;7.85;3.00;;;;;;;17.67;81.78;93028.63;4774037;30;20516;-75
2022/07/12 03:22:46;;;;;;;9.60;3.10;;;;;;;17.64;81.30;93023.97;4774863;29;20058;-74
2022/07/12 03:25:12;;;;;;;8.13;2.78;;;;;;;17.62;80.36;93015.56;4764143;30;20044;-74
2022/07/12 03:27:38;;;;;;;12.98;3.15;;;;;;;17.60;80.31;93026.47;4749702;30;20125;-74
2022/07/12 03:30:04;;;;;;;6.53;2.70;;;;;;;17.62;79.53;93036.75;4764274;30;20526;-74
2022/07/12 03:32:30;;;;;;;7.50;2.90;;;;;;;17.63;78.15;93039.09;4775292;30;20035;-75
2022/07/12 03:34:56;;;;;;;8.77;2.90;;;;;;;17.65;77.05;93031.59;4771883;30;20063;-75
2022/07/12 03:37:21;;;;;;;8.27;2.72;;;;;;;17.67;76.54;93033.91;4774972;30;20100;-74
2022/07/12 03:39:47;;;;;;;7.15;2.65;;;;;;;17.68;77.02;93040.78;4777308;30;20075;-75
2022/07/12 03:42:12;;;;;;;7.03;2.85;;;;;;;17.69;77.23;93042.31;4764412;30;20039;-75
2022/07/12 03:44:38;;;;;;;9.95;3.05;;;;;;;17.72;76.83;93032.97;4759277;30;20050;-74
2022/07/12 03:47:04;;;;;;;9.30;3.35;;;;;;;17.74;76.68;93028.91;4773409;30;20050;-74
2022/07/12 03:49:30;;;;;;;8.80;2.85;;;;;;;17.78;76.58;93034.34;4758782;30;20035;-74
2022/07/12 03:51:55;;;;;;;6.53;2.55;;;;;;;17.82;75.31;93043.25;4775099;30;20420;-74
2022/07/12 03:54:21;;;;;;;9.13;2.72;;;;;;;17.83;74.74;93036.84;4773686;29;20181;-74
2022/07/12 03:59:31;;;;;;;7.47;2.60;;;;;;;17.93;74.24;93033.88;4764871;30;20062;-75
2022/07/12 04:01:57;;;;;;;10.13;3.42;;;;;;;17.97;74.62;93041.94;4749394;30;20035;-75
2022/07/12 04:04:23;;;;;;;4.97;3.00;;;;;;;18.01;74.91;93041.00;4776475;29;20039;-75
2022/07/12 04:06:48;;;;;;;6.63;2.65;;;;;;;18.05;74.76;93049.06;4774837;30;20411;-74
2022/07/12 04:09:14;;;;;;;6.80;3.38;;;;;;;18.05;74.53;93044.56;4774025;30;20122;-75
2022/07/12 04:11:40;;;;;;;7.75;2.80;;;;;;;18.09;73.36;93048.13;4778610;30;20043;-75
2022/07/12 04:14:06;;;;;;;6.90;2.88;;;;;;;18.09;72.72;93048.13;4776169;30;20053;-74
2022/07/12 04:16:31;;;;;;;7.60;3.10;;;;;;;18.12;72.78;93051.22;4774161;29;20449;-74
2022/07/12 04:18:57;;;;;;;5.95;2.70;;;;;;;18.14;72.71;93062.28;4759158;29;20675;-74
2022/07/12 04:21:23;;;;;;;7.55;2.80;;;;;;;18.15;72.66;93059.34;4779196;30;20498;-74
2022/07/12 04:23:48;;;;;;;7.63;2.97;;;;;;;18.18;72.42;93063.22;4782070;29;20083;-74
2022/07/12 04:26:14;;;;;;;9.60;2.70;;;;;;;18.20;72.14;93063.66;4781747;29;20050;-76
2022/07/12 04:28:39;;;;;;;7.55;3.45;;;;;;;18.23;71.32;93073.63;4784981;30;20043;-76
2022/07/12 04:31:06;;;;;;;10.50;2.90;;;;;;;18.23;70.80;93070.97;4783899;30;20486;-76
2022/07/12 04:33:33;;;;;;;7.72;2.90;;;;;;;18.26;71.30;93065.03;4783454;30;20725;-76
2022/07/12 04:36:01;;;;;;;8.30;3.33;;;;;;;18.27;71.10;93064.72;4750060;30;20047;-75
2022/07/12 04:38:27;;;;;;;8.68;2.97;;;;;;;18.29;71.65;93070.47;4783291;30;20060;-75
2022/07/12 04:40:52;;;;;;;8.25;2.90;;;;;;;18.34;71.54;93060.78;4769038;30;20128;-76
2022/07/12 04:43:18;;;;;;;7.78;2.88;;;;;;;18.37;71.44;93060.91;4769214;30;20041;-76
2022/07/12 04:45:44;;;;;;;6.85;2.83;;;;;;;18.41;71.28;93067.13;4771022;30;20039;-76
2022/07/12 04:48:10;;;;;;;6.75;3.05;;;;;;;18.47;71.37;93075.69;4779552;30;20031;-75
2022/07/12 04:50:36;;;;;;;6.68;2.60;;;;;;;18.52;70.32;93065.66;4788198;30;20059;-75
2022/07/12 04:53:02;;;;;;;7.13;2.67;;;;;;;18.58;69.68;93065.50;4782636;30;20124;-78
2022/07/12 04:55:28;;;;;;;7.18;2.80;;;;;;;18.64;69.38;93066.84;4780744;29;20043;-75
2022/07/12 04:57:54;;;;;;;9.27;2.65;;;;;;;18.72;68.13;93076.63;4770368;30;20032;-76
2022/07/12 05:00:20;;;;;;;5.43;2.67;;;;;;;18.76;68.34;93080.19;4787510;30;20110;-76
2022/07/12 05:02:46;;;;;;;8.77;2.70;;;;;;;18.82;67.96;93078.16;4757277;30;20069;-76
2022/07/12 05:05:12;;;;;;;5.10;2.85;;;;;;;18.86;67.97;93082.47;4788234;29;20487;-75
2022/07/12 05:07:37;;;;;;;11.02;2.80;;;;;;;18.92;68.02;93081.19;4788271;30;20047;-76
2022/07/12 05:10:03;;;;;;;4.93;2.78;;;;;;;18.95;66.42;93084.31;4786932;30;20059;-76
2022/07/12 05:12:29;;;;;;;6.88;2.90;;;;;;;18.98;65.78;93086.31;4771990;30;20043;-75
2022/07/12 05:14:54;;;;;;;6.40;2.65;;;;;;;18.96;65.94;93078.69;4788178;29;20055;-75
2022/07/12 05:17:20;;;;;;;8.57;2.90;;;;;;;18.95;65.65;93086.97;4771910;30;20043;-76
2022/07/12 05:19:46;;;;;;;9.07;2.50;;;;;;;18.95;64.77;93084.31;4771905;30;20032;-76
2022/07/12 05:22:11;;;;;;;10.60;3.10;;;;;;;18.95;64.47;93087.72;4785434;30;20046;-75
2022/07/12 05:24:37;;;;;;;7.72;2.90;;;;;;;18.98;63.56;93089.75;4786806;29;20181;-75
2022/07/12 05:27:04;;;;;;;4.57;2.58;;;;;;;19.01;63.17;93088.31;4768522;30;20495;-77
2022/07/12 05:29:29;;;;;;;5.30;2.65;;;;;;;19.03;61.99;93094.84;4772332;30;20566;-76
2022/07/12 05:31:56;;;;;;;4.68;2.50;;;;;;;19.06;61.05;93082.81;4769691;30;20031;-76
2022/07/12 05:34:22;;;;;;;6.90;2.38;;;;;;;19.09;60.86;93084.81;4771694;29;20503;-76
2022/07/12 05:36:47;;;;;;;7.80;2.50;;;;;;;19.13;60.31;93086.50;4781523;30;20051;-76
2022/07/12 05:39:13;;;;;;;4.93;2.40;;;;;;;19.18;59.82;93087.41;4784513;30;20135;-76
2022/07/12 05:41:38;;;;;;;7.22;2.45;;;;;;;19.20;59.74;93091.28;4787629;30;20050;-76
2022/07/12 05:44:04;;;;;;;4.57;2.47;;;;;;;19.22;58.64;93090.97;4771233;30;20044;-76
2022/07/12 05:46:30;;;;;;;4.40;2.58;;;;;;;19.21;58.61;93092.84;4785565;29;20344;-76
2022/07/12 05:48:56;;;;;;;4.25;2.40;;;;;;;19.18;57.94;93093.47;4784726;30;20038;-75
2022/07/12 05:54:06;;;;;;;5.47;2.33;;;;;;;19.11;57.80;93094.00;4775869;30;20052;-76
2022/07/12 05:56:31;;;;;;;5.95;2.42;;;;;;;19.11;57.92;93101.19;4766282;30;20043;-76
2022/07/12 05:58:57;;;;;;;6.53;2.45;;;;;;;19.12;58.07;93110.72;4787127;30;20047;-76
2022/07/12 06:01:22;;;;;;;6.95;2.40;;;;;;;19.17;57.87;93104.44;4788116;30;20434;-76
2022/07/12 06:03:48;;;;;;;5.38;2.30;;;;;;;19.22;57.71;93104.22;4772153;30;20057;-76
2022/07/12 06:06:13;;;;;;;7.40;2.50;;;;;;;19.25;57.34;93115.00;4785228;29;20054;-76
2022/07/12 06:08:39;;;;;;;6.38;2.63;;;;;;;19.28;56.58;93108.25;4787128;30;20104;-76
2022/07/12 06:11:04;;;;;;;6.03;2.55;;;;;;;19.29;56.35;93117.75;4770874;30;20052;-76
2022/07/12 06:13:30;;;;;;;4.57;2.20;;;;;;;19.28;56.00;93114.34;4756554;30;20051;-76
2022/07/12 06:15:56;;;;;;;5.90;2.47;;;;;;;19.28;56.00;93124.94;4781176;29;20122;-75
2022/07/12 06:18:22;;;;;;;4.95;2.30;;;;;;;19.33;56.19;93129.28;4738585;30;20414;-75
2022/07/12 06:20:47;;;;;;;6.05;2.50;;;;;;;19.39;56.68;93129.88;4769188;30;20100;-75
2022/07/12 06:23:13;;;;;;;4.75;2.47;;;;;;;19.45;56.63;93121.34;4769117;30;20473;-75
2022/07/12 06:25:40;;;;;;;5.97;2.40;;;;;;;19.53;56.32;93128.47;4780080;30;20054;-76
2022/07/12 06:28:06;;;;;;;5.28;2.45;;;;;;;19.62;56.10;93127.63;4786945;30;20042;-76
2022/07/12 06:30:32;;;;;;;9.77;2.65;;;;;;;19.68;56.03;93131.63;4786828;30;20078;-76
2022/07/12 06:32:57;;;;;;;8.65;2.95;;;;;;;19.79;56.02;93134.69;4786920;30;20264;-76
2022/07/12 06:35:23;;;;;;;4.80;2.60;;;;;;;19.93;55.41;93143.16;4785077;29;20144;-75
2022/07/12 06:37:48;;;;;;;5.03;2.40;;;;;;;20.04;55.61;93138.19;4770747;30;20043;-76
2022/07/12 06:40:17;;;;;;;8.63;2.78;;;;;;;20.15;55.94;93142.75;4756139;30;20118;-75
2022/07/12 06:42:43;;;;;;;8.20;2.70;;;;;;;20.24;56.42;93147.19;4770501;30;20517;-75
2022/07/12 06:45:09;;;;;;;6.38;2.50;;;;;;;20.28;55.73;93148.84;4786598;29;20050;-76
2022/07/12 06:47:35;;;;;;;6.80;2.80;;;;;;;20.32;57.12;93154.31;4770388;30;20733;-76
2022/07/12 06:50:01;;;;;;;6.40;2.65;;;;;;;20.36;56.13;93149.88;4770521;30;20103;-76
2022/07/12 06:52:26;;;;;;;6.68;2.85;;;;;;;20.42;57.72;93148.53;4786523;30;20040;-76
2022/07/12 06:54:52;;;;;;;5.38;2.60;;;;;;;20.50;58.19;93154.88;4755550;30;20071;-75
2022/07/12 06:57:17;;;;;;;5.70;2.78;;;;;;;20.56;56.57;93149.03;4770442;30;20051;-76
2022/07/12 06:59:43;;;;;;;5.68;2.65;;;;;;;20.64;56.59;93149.25;4785125;30;20430;-76
2022/07/12 07:02:08;;;;;;;6.43;2.70;;;;;;;20.74;55.97;93162.91;4770468;30;20038;-75
2022/07/12 07:04:34;;;;;;;7.22;2.72;;;;;;;20.77;56.40;93158.78;4770374;30;20097;-76
2022/07/12 07:06:59;;;;;;;5.00;2.40;;;;;;;20.84;57.15;93160.91;4770375;30;20126;-76
2022/07/12 07:09:25;;;;;;;7.65;2.75;;;;;;;20.87;56.63;93157.56;4755010;30;20051;-75
2022/07/12 07:11:51;;;;;;;6.63;2.70;;;;;;;20.89;57.13;93165.97;4786219;30;20601;-75
2022/07/12 07:14:17;;;;;;;8.27;2.70;;;;;;;20.95;55.74;93170.75;4786053;29;20047;-75
2022/07/12 07:16:42;;;;;;;6.43;2.70;;;;;;;21.11;55.72;93162.09;4770230;30;20039;-76
2022/07/12 07:19:08;;;;;;;8.55;2.50;;;;;;;21.09;55.50;93166.97;4769794;30;20490;-75
2022/07/12 07:21:33;;;;;;;5.90;2.60;;;;;;;21.05;55.62;93163.41;4786209;30;20047;-76
2022/07/12 07:23:59;;;;;;;5.10;2.58;;;;;;;21.07;56.58;93174.50;4786518;30;20436;-76
2022/07/12 07:26:24;;;;;;;9.35;2.70;;;;;;;21.12;56.53;93168.94;4769940;30;20051;-76
2022/07/12 07:31:37;;;;;;;9.25;2.60;;;;;;;21.29;55.55;93160.72;4769672;30;20426;-76
2022/07/12 07:34:04;;;;;;;8.43;2.50;;;;;;;21.57;53.56;93162.66;4784155;29;20498;-76
2022/07/12 07:36:30;;;;;;;4.88;2.50;;;;;;;21.52;53.49;93166.34;4754962;30;20081;-77
2022/07/12 07:38:57;;;;;;;6.22;2.70;;;;;;;21.46;53.11;93161.59;4769288;30;20074;-76
2022/07/12 07:41:23;;;;;;;4.70;2.50;;;;;;;21.49;53.34;93156.38;4753194;30;20031;-77
2022/07/12 07:43:49;;;;;;;6.40;2.50;;;;;;;21.42;53.69;93161.50;4767338;30;20047;-76
2022/07/12 07:46:14;;;;;;;6.95;2.60;;;;;;;21.35;52.84;93164.72;4768670;30;20533;-77
2022/07/12 07:48:40;;;;;;;12.23;2.75;;;;;;;21.31;52.71;93168.38;4770240;30;20039;-76
2022/07/12 07:51:05;;;;;;;9.25;2.45;;;;;;;21.45;54.24;93168.81;4786087;30;20044;-77
2022/07/12 07:53:31;;;;;;;7.50;2.88;;;;;;;21.91;53.31;93165.88;4788897;30;20051;-78
2022/07/12 07:55:57;;;;;;;5.78;2.63;;;;;;;22.04;53.29;93170.03;4788858;29;20035;-77
2022/07/12 07:58:23;;;;;;;5.85;2.45;;;;;;;22.37;52.75;93174.34;4787793;30;20626;-77
2022/07/12 08:00:52;;;;;;;4.13;2.50;;;;;;;22.52;51.38;93176.25;4788386;30;20039;-78
2022/07/12 08:03:19;;;;;;;5.97;2.50;;;;;;;22.78;51.15;93180.28;4789197;30;20038;-78
2022/07/12 08:05:46;;;;;;;7.40;2.70;;;;;;;22.92;50.53;93175.28;4789108;29;20058;-77
2022/07/12 08:08:12;;;;;;;5.95;2.47;;;;;;;23.22;50.53;93177.50;4773070;30;20092;-78
2022/07/12 08:10:37;;;;;;;7.15;2.40;;;;;;;23.44;49.95;93179.50;4788578;30;20059;-77
2022/07/12 08:13:03;;;;;;;6.05;2.42;;;;;;;23.66;48.58;93174.59;4772713;30;20093;-77
2022/07/12 08:15:30;;;;;;;8.02;3.25;;;;;;;23.85;48.27;93168.50;4789125;29;20517;-78
2022/07/12 08:17:56;;;;;;;10.98;2.78;;;;;;;23.97;47.05;93170.25;4789075;30;20078;-77
2022/07/12 08:20:23;;;;;;;5.65;2.75;;;;;;;24.18;47.54;93169.88;4790487;29;20039;-77
2022/07/12 08:22:49;;;;;;;9.43;2.70;;;;;;;24.31;46.31;93172.00;4794763;30;20035;-78
2022/07/12 08:25:14;;;;;;;7.05;3.42;;;;;;;24.28;46.46;93172.75;4795116;29;20042;-78
2022/07/12 08:27:40;;;;;;;7.30;2.50;;;;;;;24.40;45.19;93173.69;4779320;30;20043;-78
2022/07/12 08:30:07;;;;;;;5.93;2.55;;;;;;;24.27;46.04;93170.41;4795833;30;20100;-78
2022/07/12 08:32:32;;;;;;;6.47;2.63;;;;;;;24.35;49.42;93171.31;4794328;30;20043;-78
2022/07/12 08:34:58;;;;;;;6.50;2.70;;;;;;;24.57;46.36;93161.78;4763589;30;20054;-78
2022/07/12 08:37:24;;;;;;;7.15;2.70;;;;;;;24.72;46.19;93158.19;4781283;30;20047;-78
2022/07/12 08:39:49;;;;;;;6.03;2.83;;;;;;;24.50;45.77;93167.81;4797804;30;20042;-78
2022/07/12 08:42:16;;;;;;;8.30;3.05;;;;;;;24.34;45.90;93156.38;4796480;30;20100;-78
2022/07/12 08:44:43;;;;;;;5.95;2.80;;;;;;;24.07;48.96;93149.06;4780379;30;20463;-78
2022/07/12 08:47:09;;;;;;;10.18;2.90;;;;;;;23.95;48.87;93159.13;4795258;30;20027;-78
2022/07/12 08:49:37;;;;;;;5.70;3.10;;;;;;;23.53;49.41;93149.13;4778981;30;20051;-78
2022/07/12 08:52:25;;;;;;;4.97;2.83;;;;;;;23.67;48.60;93160.09;4792649;29;20145;-78
2022/07/12 08:54:52;;;;;;;6.43;3.22;;;;;;;23.74;49.02;93157.56;4780357;29;20070;-79
2022/07/12 08:57:30;;;;;;;7.20;3.20;;;;;;;23.96;49.56;93156.13;4779153;30;20036;-78
2022/07/12 09:00:00;;;;;;;11.23;3.08;;;;;;;23.95;49.57;93161.81;4777352;30;20043;-80
2022/07/12 09:02:26;;;;;;;7.63;3.67;;;;;;;23.61;50.03;93164.19;4759625;30;20059;-78
2022/07/12 09:05:28;;;;;;;18.88;3.90;;;;;;;23.22;51.41;93161.47;4770605;30;20043;-78
2022/07/12 09:08:06;;;;;;;11.13;3.60;;;;;;;22.86;51.08;93149.97;4768446;30;20051;-77
2022/07/12 09:10:51;;;;;;;14.52;3.65;;;;;;;22.83;53.32;93155.97;4787648;30;20101;-76
2022/07/12 09:13:18;;;;;;;11.13;3.20;;;;;;;23.32;52.66;93158.22;4772089;30;20583;-75
2022/07/12 09:15:43;;;;;;;5.78;3.40;;;;;;;22.98;52.58;93159.75;4768773;30;20028;-76
2022/07/12 09:18:17;;;;;;;12.93;3.70;;;;;;;22.98;52.00;93152.53;4750649;30;20100;-75
2022/07/12 09:20:50;;;;;;;15.10;4.05;;;;;;;23.17;52.11;93159.84;4771497;30;20510;-75
2022/07/12 09:23:17;;;;;;;10.05;3.45;;;;;;;23.27;52.23;93153.94;4786611;30;20124;-75
2022/07/12 09:25:46;;;;;;;17.85;4.45;;;;;;;23.03;53.59;93160.31;4787009;29;20039;-76
2022/07/12 09:28:12;;;;;;;9.48;3.53;;;;;;;23.20;51.87;93174.41;4787072;30;20093;-75
2022/07/12 09:30:48;;;;;;;10.85;3.72;;;;;;;23.11;52.71;93171.91;4771706;30;20498;-77
2022/07/12 09:36:07;;;;;;;15.00;4.55;;;;;;;23.17;51.94;93169.72;4771392;30;20571;-75
2022/07/12 09:38:37;;;;;;;9.38;3.67;;;;;;;23.54;52.88;93164.03;4753529;30;20503;-77
2022/07/12 09:41:04;;;;;;;12.50;4.10;;;;;;;23.40;52.53;93170.63;4770461;30;20067;-77
2022/07/12 09:43:31;;;;;;;8.50;4.65;;;;;;;23.52;53.34;93153.69;4780720;30;20046;-77
2022/07/12 09:45:57;;;;;;;6.88;3.72;;;;;;;23.46;52.93;93155.09;4770364;30;20045;-77
2022/07/12 09:48:25;;;;;;;8.43;3.80;;;;;;;23.50;52.46;93155.94;4771621;30;20047;-78
2022/07/12 09:50:51;;;;;;;9.73;4.18;;;;;;;23.43;51.90;93156.56;4772643;30;20027;-78
2022/07/12 09:53:21;;;;;;;9.00;4.35;;;;;;;23.39;51.64;93153.03;4757419;30;20078;-77
2022/07/12 09:55:51;;;;;;;8.70;4.00;;;;;;;23.52;52.92;93156.38;4772270;30;20035;-78
2022/07/12 09:58:23;;;;;;;8.20;3.92;;;;;;;23.64;53.88;93150.09;4769634;30;20100;-77
2022/07/12 10:00:51;;;;;;;7.82;3.80;;;;;;;23.94;51.41;93155.69;4769911;30;20043;-76
2022/07/12 10:03:22;;;;;;;6.40;3.53;;;;;;;24.22;50.36;93152.75;4771607;30;20050;-77
2022/07/12 10:05:51;;;;;;;7.32;3.83;;;;;;;24.47;50.24;93157.75;4771658;30;20048;-75
2022/07/12 10:08:18;;;;;;;11.30;3.83;;;;;;;24.58;51.47;93155.28;4778228;30;20043;-77
2022/07/12 10:10:44;;;;;;;9.70;3.88;;;;;;;24.86;49.82;93152.31;4769392;30;20050;-77
2022/07/12 10:13:10;;;;;;;7.03;4.18;;;;;;;25.06;49.77;93144.94;4771383;30;20035;-78
2022/07/12 10:15:36;;;;;;;9.77;4.22;;;;;;;25.25;49.51;93146.75;4787391;29;20073;-77
2022/07/12 10:18:05;;;;;;;9.93;4.45;;;;;;;25.43;50.39;93149.69;4785400;30;20047;-77
2022/07/12 10:20:31;;;;;;;6.47;3.88;;;;;;;25.49;48.72;93143.66;4784708;30;20036;-77
2022/07/12 10:23:19;;;;;;;8.82;4.05;;;;;;;25.22;48.33;93140.22;4786441;30;20039;-77
2022/07/12 10:25:48;;;;;;;10.23;4.32;;;;;;;24.46;48.46;93140.16;4787031;29;20058;-76
2022/07/12 10:28:14;;;;;;;10.38;4.60;;;;;;;24.27;49.80;93136.44;4776016;30;20189;-77
2022/07/12 10:30:47;;;;;;;8.43;4.10;;;;;;;24.43;50.46;93144.34;4783282;30;20031;-76
2022/07/12 10:33:22;;;;;;;9.60;4.90;;;;;;;24.71;50.11;93144.03;4785634;30;20495;-77
2022/07/12 10:36:02;;;;;;;9.75;4.55;;;;;;;24.91;50.21;93138.59;4771329;30;20458;-77
2022/07/12 10:38:28;;;;;;;8.27;3.70;;;;;;;24.90;49.35;93134.38;4770234;30;20043;-77
2022/07/12 10:40:54;;;;;;;12.65;4.55;;;;;;;24.92;49.50;93137.47;4786445;30;20252;-76
2022/07/12 10:43:22;;;;;;;15.55;4.63;;;;;;;25.04;48.80;93128.44;4786724;29;20043;-77
2022/07/12 10:45:49;;;;;;;11.32;4.53;;;;;;;25.19;49.27;93126.78;4787676;29;20043;-78
2022/07/12 10:48:17;;;;;;;6.85;4.25;;;;;;;25.08;48.16;93126.59;4771453;30;20047;-77
2022/07/12 10:50:45;;;;;;;6.60;4.03;;;;;;;25.05;51.53;93133.44;4786378;30;20141;-77
2022/07/12 10:53:23;;;;;;;9.05;4.68;;;;;;;25.19;47.35;93129.44;4782553;29;20183;-77
2022/07/12 10:56:06;;;;;;;14.15;5.10;;;;;;;25.48;48.35;93123.31;4770615;30;20031;-78
2022/07/12 10:58:43;;;;;;;8.30;4.22;;;;;;;25.09;48.84;93118.19;4786725;30;20047;-77
2022/07/12 11:01:12;;;;;;;10.95;4.40;;;;;;;24.98;47.88;93122.63;4789053;30;20074;-78
2022/07/12 11:03:40;;;;;;;10.18;4.65;;;;;;;24.73;48.65;93123.03;4779921;30;20031;-79
2022/07/12 11:06:15;;;;;;;9.95;4.20;;;;;;;24.77;50.82;93117.75;4791326;29;20161;-79
2022/07/12 11:08:47;;;;;;;9.38;4.45;;;;;;;25.07;48.91;93120.47;4778568;30;20510;-79
2022/07/12 11:11:13;;;;;;;8.48;4.75;;;;;;;25.26;49.08;93110.78;4805196;29;20343;-79
2022/07/12 11:13:38;;;;;;;8.63;4.32;;;;;;;25.43;48.38;93115.63;4776729;30;20043;-79
2022/07/12 11:16:04;;;;;;;12.77;4.90;;;;;;;25.08;47.84;93114.00;4760991;30;20067;-79
2022/07/12 11:18:35;;;;;;;11.10;4.90;;;;;;;24.82;50.31;93119.34;4743279;30;20050;-79
2022/07/12 11:21:02;;;;;;;9.20;4.90;;;;;;;24.77;48.91;93112.41;4785244;30;20046;-79
2022/07/12 11:23:29;;;;;;;10.07;4.50;;;;;;;24.36;50.42;93112.09;4773660;30;20394;-78
2022/07/12 11:25:56;;;;;;;9.95;4.80;;;;;;;24.53;49.63;93108.19;4772759;30;20098;-79
2022/07/12 11:28:23;;;;;;;11.95;4.53;;;;;;;24.60;50.06;93119.00;4790237;30;20134;-78
2022/07/12 11:30:50;;;;;;;8.25;4.70;;;;;;;24.73;48.60;93119.59;4773230;30;20039;-79
2022/07/12 11:33:16;;;;;;;12.57;5.07;;;;;;;24.56;48.65;93112.81;4789198;30;20047;-78
2022/07/12 11:35:46;;;;;;;8.68;4.85;;;;;;;24.95;49.21;93118.00;4789275;29;20096;-79
2022/07/12 11:38:12;;;;;;;8.63;4.57;;;;;;;24.84;49.50;93117.09;4790593;30;20039;-79
2022/07/12 11:40:38;;;;;;;7.70;4.72;;;;;;;24.97;48.53;93110.41;4792170;30;20042;-79
2022/07/12 11:43:04;;;;;;;10.70;4.85;;;;;;;24.47;49.13;93110.38;4759448;30;20047;-79